Date,TemperatureHighF,TemperatureAvgF,TemperatureLowF,DewpointHighF,DewpointAvgF,DewpointLowF,HumidityHigh,HumidityAvg,HumidityLow,PressureMaxIn,PressureMinIn,WindSpeedMaxMPH,WindSpeedAvgMPH,GustSpeedMaxMPH,PrecipitationSumIn
2012-1-1,67.1,47.3,32.4,42.7,30.6,16.5,78,55,30,30.12,29.82,19,2,19,0.04
2012-1-2,46.0,37.6,25.7,16.6,8.5,0.6,35,29,22,30.00,29.88,17,4,17,0.00
2012-1-3,34.0,25.6,17.4,3.4,-1.9,-6.1,34,30,23,30.27,29.97,20,4,20,0.00
2012-1-4,45.3,28.6,16.0,11.7,2.3,-6.1,45,33,20,30.33,29.97,13,2,13,0.00
2012-1-5,56.1,38.3,24.6,19.9,10.4,1.2,42,32,20,30.06,29.94,12,2,12,0.00
2012-1-6,67.3,47.3,30.4,25.2,16.2,9.8,46,31,15,30.03,29.88,11,2,11,0.00
2012-1-7,70.5,52.0,34.9,33.1,24.8,12.7,47,35,24,30.00,29.85,13,2,13,0.00
2012-1-8,57.4,50.4,40.1,33.2,24.3,19.6,51,37,26,30.24,29.94,6,1,6,0.00
2012-1-9,48.4,42.5,39.4,38.3,35.0,24.4,87,75,39,30.21,30.00,6,1,6,0.04
2012-1-10,61.2,46.7,40.3,41.1,32.6,23.8,90,63,28,30.06,29.97,6,1,6,0.00
2012-1-11,46.9,45.4,34.2,44.2,39.4,30.0,100,80,59,29.97,29.50,9,2,9,1.21
2012-1-12,56.7,40.3,0.0,46.9,32.7,0.0,97,62,35,29.65,29.44,22,3,229,0.38
2012-1-13,50.5,35.0,28.2,24.0,8.9,2.5,40,33,28,30.03,29.47,22,6,22,0.00
2012-1-14,45.9,31.8,23.0,14.5,7.5,3.3,44,36,25,30.12,29.97,13,2,13,0.00
2012-1-15,46.0,34.5,24.8,18.9,13.1,6.8,61,42,28,30.47,30.06,12,1,12,0.00
2012-1-16,50.7,35.6,22.8,23.1,15.4,7.4,60,44,31,30.50,30.27,15,2,15,0.00
2012-1-17,61.2,51.7,0.0,50.2,33.9,0.0,78,51,40,30.27,29.79,20,5,20,0.04
2012-1-18,56.7,43.6,31.8,48.5,18.8,6.3,75,38,24,30.09,29.79,13,3,13,0.00
2012-1-19,48.7,35.7,22.3,17.8,11.0,3.0,44,36,28,30.18,29.97,12,2,12,0.00
2012-1-20,55.4,41.9,27.1,37.2,24.3,14.0,77,51,32,30.12,29.97,6,1,6,0.20
2012-1-21,50.5,44.8,36.9,45.7,39.5,29.0,88,82,72,30.18,29.79,12,2,12,0.37
2012-1-22,37.0,34.0,32.2,31.3,26.3,20.9,89,74,61,30.33,30.15,17,4,17,0.00
2012-1-23,42.4,38.0,34.0,40.8,35.6,31.1,94,91,86,30.27,29.97,6,2,6,0.12
2012-1-24,64.8,47.9,0.0,47.5,38.1,0.0,96,73,29,30.21,29.97,7,2,7,0.00
2012-1-25,64.0,45.1,33.4,31.7,25.8,19.8,82,50,25,30.30,30.15,7,1,7,0.00
2012-1-26,69.1,55.1,40.1,52.8,39.7,24.6,75,57,41,30.18,29.71,15,2,15,0.00
2012-1-27,65.3,58.2,36.5,53.9,35.6,16.9,76,45,25,30.00,29.56,20,5,20,0.00
2012-1-28,62.4,43.3,28.0,29.7,20.9,10.9,75,44,25,30.18,29.88,14,2,14,10.62
2012-1-29,53.4,38.2,23.2,14.9,5.4,-3.8,46,27,13,30.33,30.15,17,2,17,64.26
2012-1-30,61.0,43.1,26.1,18.0,7.3,-2.9,40,24,14,30.36,30.21,12,2,12,0.00
2012-1-31,69.8,50.6,35.4,24.0,14.5,6.7,32,24,14,30.33,30.15,9,3,12,0.00
2012-2-1,70.7,55.2,48.7,44.5,28.3,15.2,74,38,23,30.21,30.00,12,3,12,0.17
2012-2-2,68.0,55.7,43.2,48.0,33.9,13.5,85,51,18,30.33,29.94,15,2,15,0.00
2012-2-3,61.3,45.0,33.3,24.3,19.1,13.4,56,37,22,30.44,30.27,7,1,7,0.00
2012-2-4,54.3,45.6,36.1,42.8,29.2,16.5,83,54,36,30.30,29.97,10,2,11,0.13
2012-2-5,47.7,39.9,31.1,43.5,35.0,25.4,93,83,68,30.21,29.94,10,3,10,0.16
2012-2-6,51.8,38.7,30.2,35.5,26.9,20.7,89,66,37,30.27,30.09,7,1,7,0.00
2012-2-7,60.3,43.2,28.6,28.2,21.4,14.4,79,46,22,30.15,30.06,7,1,8,0.00
2012-2-8,47.8,37.6,27.9,27.9,21.2,15.1,65,52,39,30.18,30.06,6,1,9,0.00
2012-2-9,55.0,40.1,30.4,22.1,16.3,12.5,51,38,26,30.24,30.06,9,2,9,0.00
2012-2-10,50.5,38.0,25.9,29.9,23.4,14.0,70,56,41,30.15,29.82,10,1,10,0.00
2012-2-11,47.1,36.5,22.5,30.9,12.6,-21.6,71,41,19,30.00,29.74,24,5,24,0.00
2012-2-12,42.6,29.1,19.0,5.1,-3.7,-12.8,30,24,18,30.21,30.00,20,4,20,0.00
2012-2-13,55.4,35.2,18.5,13.7,4.7,-1.8,45,29,13,30.21,30.03,11,2,11,0.00
2012-2-14,55.2,46.1,38.7,27.2,18.0,9.2,49,32,28,30.06,29.91,17,4,17,0.00
2012-2-15,64.8,45.0,31.1,34.0,23.1,15.8,81,45,20,30.24,30.00,9,1,9,0.00
2012-2-16,61.2,49.8,39.9,43.6,33.1,17.4,84,55,34,30.21,29.94,8,1,8,0.17
2012-2-17,64.8,50.8,41.0,43.6,29.6,15.1,86,50,21,30.09,30.00,10,2,10,0.00
2012-2-18,65.5,50.3,37.6,27.1,21.7,9.6,45,33,20,30.09,29.91,12,1,12,0.00
2012-2-19,51.3,39.4,32.0,29.6,26.6,20.6,89,64,33,29.94,29.74,14,3,14,0.76
2012-2-20,51.1,36.0,25.7,28.6,21.1,13.0,88,59,28,30.30,29.91,8,1,8,0.21
2012-2-21,58.3,41.2,24.3,31.1,23.6,13.8,74,52,31,30.30,29.91,15,3,15,0.00
2012-2-22,68.0,52.3,36.3,39.7,32.6,11.8,80,51,24,29.94,29.50,19,3,19,0.13
2012-2-23,73.4,56.1,0.0,50.5,40.5,0.0,89,59,32,29.68,29.53,12,2,12,0.08
2012-2-24,78.3,64.3,43.3,53.2,40.2,12.4,67,43,26,29.85,29.41,23,6,23,0.21
2012-2-25,52.7,41.5,32.4,13.2,8.2,2.7,31,25,16,30.30,29.85,25,6,25,0.00
2012-2-26,58.3,37.6,22.3,19.9,9.4,1.6,53,32,17,30.44,30.27,8,1,8,0.00
2012-2-27,59.4,44.0,30.7,41.8,25.3,9.8,79,48,40,30.41,30.27,7,2,7,0.00
2012-2-28,71.2,53.0,36.0,42.3,26.0,8.4,85,44,12,30.39,30.21,9,1,9,0.00
2012-2-29,65.8,57.2,46.2,54.5,41.2,20.5,80,56,33,30.24,29.76,15,3,15,0.08
2012-3-1,78.4,64.1,46.6,55.5,30.6,3.5,82,38,8,29.88,29.74,23,4,23,0.04
2012-3-2,57.0,48.8,41.0,46.9,32.7,11.6,85,56,25,29.97,29.68,8,1,8,0.09
2012-3-3,62.4,53.4,47.3,53.2,36.2,23.0,94,58,25,29.74,29.56,12,2,12,0.28
2012-3-4,52.9,44.4,29.5,23.5,13.3,1.9,41,29,17,29.97,29.65,18,3,18,0.00
2012-3-5,51.6,39.3,27.5,21.4,10.0,-3.6,49,31,16,30.44,29.85,26,4,26,0.00
2012-3-6,61.5,39.7,22.1,19.3,9.5,2.3,52,31,14,30.62,30.30,8,1,8,0.00
2012-3-7,71.1,51.8,32.2,36.6,25.7,8.5,54,37,23,30.59,30.39,13,2,13,0.00
2012-3-8,71.4,61.3,53.6,45.8,40.6,35.8,68,48,32,30.41,30.06,17,3,17,0.00
2012-3-9,61.2,54.5,39.0,51.8,29.5,8.1,81,43,14,30.30,30.03,13,2,13,0.09
2012-3-10,61.7,45.7,34.7,16.4,9.6,0.8,31,24,11,30.47,30.30,10,2,10,0.00
2012-3-11,69.6,47.8,28.9,26.4,15.1,5.3,50,30,12,30.53,30.36,8,1,8,0.00
2012-3-12,71.8,56.5,39.2,39.9,30.3,15.7,51,37,30,30.36,30.21,14,3,14,0.00
2012-3-13,81.1,66.0,57.0,46.8,42.0,34.6,61,43,23,30.21,30.06,15,3,15,0.00
2012-3-14,87.1,67.4,52.3,53.9,38.9,23.9,84,42,11,30.24,30.12,10,1,10,0.00
2012-3-15,83.8,66.5,52.5,44.8,38.3,31.4,60,37,19,30.24,30.15,11,2,11,0.00
2012-3-16,84.7,64.1,50.4,54.0,43.6,35.8,77,52,20,30.21,30.06,12,1,12,0.50
2012-3-17,80.8,65.1,54.5,58.0,48.6,38.6,92,60,25,30.24,30.15,10,1,10,0.50
2012-3-18,72.3,61.4,54.3,56.4,51.1,45.4,89,71,41,30.33,30.21,4,1,4,0.00
2012-3-19,83.1,64.6,51.4,58.9,49.4,41.1,91,63,27,30.27,30.09,8,1,8,0.00
2012-3-20,88.9,67.6,54.5,60.0,51.1,41.8,91,61,23,30.27,30.09,10,1,10,0.57
2012-3-21,83.1,65.8,55.0,61.2,50.6,40.5,92,63,30,30.30,30.18,6,1,6,0.05
2012-3-22,82.9,67.9,57.7,60.2,50.4,41.8,88,58,27,30.27,30.12,9,2,9,0.04
2012-3-23,86.2,68.3,55.6,58.3,49.8,43.2,87,56,24,30.15,29.94,11,2,11,0.29
2012-3-24,80.1,64.7,0.0,61.8,53.7,0.0,89,70,34,30.00,29.74,13,1,13,26.36
2012-3-25,63.0,58.1,54.3,56.5,50.8,43.4,93,77,51,29.85,29.74,8,2,8,0.62
2012-3-26,76.8,62.7,50.7,52.2,35.5,7.1,86,44,14,30.15,29.82,13,2,13,0.00
2012-3-27,69.3,51.7,39.2,23.7,14.8,5.9,40,24,12,30.36,30.15,6,1,6,0.00
2012-3-28,80.1,63.1,47.3,46.4,37.6,21.5,59,40,26,30.21,29.85,17,4,17,0.00
2012-3-29,84.2,68.4,54.0,43.4,28.4,8.8,54,27,8,29.97,29.82,15,3,15,0.00
2012-3-30,81.5,63.1,50.5,44.4,35.8,20.6,55,37,21,30.09,29.85,8,2,8,0.00
2012-3-31,78.4,66.8,59.4,57.4,45.0,32.9,79,49,22,29.85,29.71,11,2,11,0.13
2012-4-1,73.4,61.7,48.9,48.2,39.9,34.7,72,47,25,29.94,29.68,10,2,11,0.00
2012-4-2,80.1,67.1,53.2,50.0,40.3,28.5,64,40,21,29.97,29.65,12,2,12,0.00
2012-4-3,83.8,62.2,43.3,52.4,38.1,27.2,69,44,20,30.03,29.76,17,3,17,0.17
2012-4-4,86.2,69.3,59.7,53.5,47.1,38.2,70,48,22,29.88,29.62,10,2,10,0.17
2012-4-5,66.0,58.6,50.4,51.4,33.7,24.4,69,41,26,29.85,29.68,9,3,9,0.00
2012-4-6,66.9,53.1,41.5,36.6,26.1,14.4,69,38,15,30.12,29.82,11,2,11,0.00
2012-4-7,76.3,53.0,34.9,26.1,19.3,8.5,57,32,9,30.27,30.09,8,1,8,0.00
2012-4-8,80.1,59.9,41.0,31.1,19.3,11.1,49,25,10,30.15,29.91,12,2,13,0.00
2012-4-9,77.0,62.5,45.3,24.3,13.8,6.0,36,16,9,30.06,29.79,17,3,17,0.00
2012-4-10,74.3,60.5,43.3,26.6,14.4,3.7,39,18,10,29.94,29.74,20,4,20,0.00
2012-4-11,57.0,47.7,34.9,15.6,8.4,1.2,35,20,13,30.12,29.82,16,2,16,0.00
2012-4-12,70.5,48.0,31.6,25.2,16.4,9.7,46,31,12,30.21,30.06,10,1,10,0.00
2012-4-13,74.1,52.9,38.5,29.1,22.8,13.1,54,34,11,30.27,30.09,7,1,7,0.00
2012-4-14,79.5,60.0,41.2,33.5,27.9,19.8,58,33,13,30.30,30.15,14,3,14,0.00
2012-4-15,83.5,68.8,57.2,50.9,44.1,30.4,71,43,25,30.21,30.09,13,4,13,0.00
2012-4-16,89.2,73.2,61.7,50.8,45.0,37.9,65,40,19,30.18,30.03,17,4,17,0.00
2012-4-17,84.0,70.2,59.4,52.3,42.4,33.7,70,39,21,30.21,30.09,11,2,11,0.00
2012-4-18,60.6,54.5,51.4,47.6,42.4,34.6,77,64,38,30.21,30.09,8,2,8,0.20
2012-4-19,66.0,56.6,50.9,47.8,43.6,38.9,82,64,38,30.15,30.03,5,1,5,0.20
2012-4-20,77.0,62.8,54.3,50.4,45.2,39.7,80,56,31,30.03,29.85,8,1,8,0.00
2012-4-21,84.6,66.1,53.8,55.7,47.6,36.8,83,57,21,29.88,29.68,12,2,12,0.33
2012-4-22,59.0,52.4,45.9,50.8,46.4,37.4,86,80,71,29.76,29.50,9,2,9,0.54
2012-4-23,54.3,46.1,40.3,37.4,26.4,19.4,73,48,28,29.71,29.50,13,3,13,0.04
2012-4-24,66.0,50.8,35.1,23.0,16.8,10.8,51,28,13,29.82,29.65,18,4,18,0.00
2012-4-25,72.1,56.2,42.6,46.2,35.1,21.7,68,47,27,29.97,29.79,14,2,14,0.00
2012-4-26,80.1,63.6,52.3,57.2,50.3,45.1,88,65,31,29.88,29.74,13,3,13,0.33
2012-4-27,79.5,66.3,54.1,55.2,42.1,30.4,80,46,17,30.12,29.82,9,1,9,0.33
2012-4-28,58.1,54.7,51.6,40.7,34.0,29.4,64,46,36,30.24,30.09,6,1,6,0.00
2012-4-29,83.7,66.1,52.7,51.3,45.4,39.1,73,50,28,30.21,30.06,9,1,9,0.00
2012-4-30,79.3,69.4,61.3,60.0,54.2,50.5,84,60,40,30.27,30.09,9,1,9,0.00
2012-5-1,90.9,73.7,66.9,58.1,54.2,46.8,71,52,23,30.15,30.03,12,3,12,0.00
2012-5-2,95.2,78.1,66.9,59.3,52.6,44.1,73,44,19,30.15,30.03,10,3,10,0.00
2012-5-3,94.8,77.8,62.2,57.3,51.2,44.7,75,42,20,30.15,30.03,6,1,6,0.00
2012-5-4,92.1,74.9,61.9,59.6,48.2,38.1,77,44,18,30.09,29.91,10,2,10,0.00
2012-5-5,84.6,70.8,62.6,61.3,54.2,45.5,80,58,30,29.94,29.79,6,1,6,0.38
2012-5-6,70.2,67.0,66.0,60.6,58.2,52.6,82,74,54,30.06,29.91,5,2,6,0.38
2012-5-10,0.0,0.0,0.0,0.0,0.0,0.0,0,0,100,30.00,29.74,0,0,0,0.00
2012-5-11,74.7,59.3,0.0,51.9,29.8,0.0,45,25,19,30.30,29.97,0,0,0,0.08
2012-5-12,75.2,70.4,64.8,39.7,36.1,25.5,35,29,16,30.41,30.27,0,0,0,0.00
2012-5-13,73.0,70.7,65.5,51.3,43.7,37.2,58,38,30,30.33,30.15,0,0,0,0.00
2012-5-14,73.6,71.1,48.2,57.8,50.3,29.5,66,48,42,30.21,29.94,0,0,0,0.00
2012-5-15,79.0,72.7,69.8,56.1,51.1,48.7,50,47,43,30.06,29.97,0,0,0,0.00
2012-5-16,78.6,74.4,64.4,57.4,51.4,49.7,77,45,37,30.06,29.94,0,0,0,0.00
2012-5-17,92.1,73.0,58.8,61.0,51.7,42.4,90,53,21,30.12,30.00,0,0,0,0.00
2012-5-18,85.5,68.9,57.2,54.8,43.4,32.3,72,44,19,30.21,30.09,3,0,3,0.00
2012-5-19,85.3,65.9,51.6,48.4,41.1,33.8,74,45,19,30.27,30.09,6,0,6,0.00
2012-5-20,88.9,60.6,52.3,52.2,45.1,35.5,79,61,18,30.21,29.97,10,0,10,0.00
2012-5-21,90.1,72.8,63.9,56.9,50.0,40.2,70,48,21,30.09,29.82,4,0,4,0.00
2012-5-22,90.0,71.5,61.9,61.4,54.9,45.3,85,60,24,29.94,29.74,4,0,4,0.30
2012-5-23,73.6,65.4,63.3,63.5,59.4,50.7,92,82,53,29.97,29.85,2,0,2,0.00
2012-5-24,87.4,70.4,62.6,62.8,57.0,48.8,87,66,30,30.12,29.97,5,0,5,0.00
2012-5-25,95.2,71.2,61.2,64.6,57.4,42.8,88,66,21,30.21,30.00,3,0,3,0.00
2012-5-26,92.1,76.2,65.3,66.1,56.2,47.3,87,55,26,30.21,30.00,6,0,6,0.00
2012-5-27,93.7,75.8,63.1,63.1,54.6,45.4,81,52,21,30.21,29.97,6,0,6,0.00
2012-5-28,94.5,78.0,69.1,65.3,57.1,48.6,82,53,23,30.15,29.91,3,0,3,0.00
2012-5-29,89.8,75.9,70.5,67.0,59.5,49.6,80,59,28,30.00,29.76,4,0,4,0.00
2012-5-30,91.9,75.5,67.3,65.2,55.5,39.1,89,57,17,29.85,29.68,8,0,8,0.00
2012-5-31,95.4,78.1,61.5,60.2,47.8,35.7,80,40,14,29.94,29.74,3,0,5,0.00
2012-6-1,90.3,72.7,63.0,62.9,54.1,45.6,76,55,28,29.85,29.65,1,0,1,0.00
2012-6-2,80.1,64.6,0.0,55.3,44.7,0.0,82,53,24,29.91,29.79,4,0,4,0.00
2012-6-3,87.6,72.8,50.2,55.0,38.7,34.1,78,33,18,30.00,29.76,0,0,0,0.00
2012-6-4,89.6,70.7,58.5,57.1,45.4,35.9,75,45,19,29.82,29.62,4,0,4,0.00
2012-6-5,65.8,7.8,0.0,47.7,5.6,0.0,54,6,47,29.91,29.74,5,0,5,0.00
2012-6-6,68.7,61.9,55.9,52.1,47.2,42.8,77,60,40,30.09,29.85,4,0,5,0.00
2012-6-7,84.9,61.9,53.1,60.2,48.3,39.1,88,66,24,30.12,30.00,5,0,5,0.56
2012-6-8,93.4,65.7,54.0,59.0,45.0,32.0,83,55,16,30.15,30.03,5,0,5,0.56
2012-6-9,97.0,73.2,55.9,61.9,46.1,36.0,78,45,14,30.18,30.03,6,0,6,0.56
2012-6-10,96.8,72.6,61.7,60.4,49.8,37.5,76,50,17,30.24,30.09,5,0,5,0.00
2012-6-11,86.0,74.2,70.3,66.0,58.5,47.5,83,60,35,30.24,30.06,8,1,8,0.04
2012-6-12,84.2,73.9,68.7,70.3,62.7,52.8,88,70,40,30.09,29.91,6,1,6,0.25
2012-6-13,90.5,75.4,65.5,70.9,56.9,46.3,92,58,29,30.12,29.94,4,0,4,0.12
2012-6-14,90.7,70.4,57.4,55.0,48.8,0.0,74,50,19,30.24,30.09,8,1,8,0.00
2012-6-15,85.3,71.0,60.6,60.2,49.2,41.2,83,50,25,30.33,30.21,7,1,7,0.00
2012-6-16,87.8,69.5,55.6,55.3,42.7,34.3,76,42,19,30.36,30.21,6,1,6,0.00
2012-6-17,88.9,69.9,56.7,59.0,46.8,37.6,76,48,20,30.27,30.09,4,0,4,0.00
2012-6-18,86.0,74.7,64.4,56.9,51.5,46.3,68,47,29,30.18,30.09,6,0,6,0.09
2012-6-19,97.0,78.3,66.6,61.8,54.9,44.9,78,49,20,30.24,30.15,4,0,4,0.00
2012-6-20,102.0,80.7,66.9,71.4,57.3,47.2,82,50,20,30.27,30.12,4,0,4,0.00
2012-6-21,102.9,82.6,70.0,71.1,58.4,44.9,78,49,17,30.12,29.94,7,0,7,0.00
2012-6-22,102.6,78.3,69.8,69.7,60.8,45.0,92,63,17,30.00,29.88,5,0,5,1.08
2012-6-23,85.5,75.6,68.2,74.1,62.5,51.1,94,68,34,30.24,29.94,4,0,4,1.17
2012-6-24,97.2,78.1,66.4,70.9,56.1,43.4,88,53,23,30.09,29.97,6,1,6,0.00
2012-6-25,95.4,78.1,67.5,68.7,57.9,49.3,81,55,26,30.00,29.76,4,0,4,0.04
2012-6-26,76.1,58.5,0.0,58.1,45.1,0.0,73,56,20,30.24,29.82,8,1,8,0.04
2012-6-27,91.9,70.7,54.7,53.1,40.9,23.0,74,41,9,30.06,29.94,6,1,6,0.04
2012-6-28,99.7,70.2,0.0,58.5,42.4,0.0,71,40,8,30.09,29.88,6,0,6,0.04
2012-6-29,106.9,66.3,0.0,68.0,40.4,0.0,65,26,14,29.94,28.97,15,0,15,0.00
2012-6-30,106.9,86.8,76.6,68.0,60.2,0.0,64,46,14,29.12,28.97,11,1,11,0.00
2012-7-1,100.4,81.7,70.5,63.5,54.8,46.7,65,42,19,29.20,29.06,3,2,3,0.00
2012-7-2,93.6,80.1,66.9,62.9,54.1,43.8,80,45,21,29.32,29.12,8,2,8,0.00
2012-7-3,103.3,81.2,69.3,72.2,58.0,43.5,80,52,16,29.23,29.12,3,2,3,0.30
2012-7-4,95.2,80.7,69.1,68.6,58.0,48.2,82,51,22,29.23,29.09,2,0,2,0.00
2012-7-5,97.0,81.8,70.5,68.3,56.6,42.9,79,46,20,29.14,29.06,1,1,1,0.00
2012-7-6,96.6,80.8,67.8,63.4,56.0,47.7,77,47,20,29.20,29.12,5,1,5,0.00
2012-7-7,99.3,83.8,71.8,69.6,57.2,45.6,80,46,18,29.20,29.12,4,0,4,0.00
2012-7-8,100.2,85.6,73.9,66.3,57.0,45.1,70,42,17,29.17,29.00,4,0,4,0.00
2012-7-9,94.6,81.4,71.6,65.6,57.6,51.2,71,47,27,29.20,29.06,6,1,6,0.00
2012-7-10,82.0,74.5,70.9,71.6,63.4,54.7,89,70,40,29.26,29.14,4,0,4,0.00
2012-7-11,74.5,61.6,0.0,68.8,55.1,0.0,87,68,66,29.35,29.20,0,0,0,0.00
2012-7-12,79.0,71.2,64.2,64.9,58.7,49.9,86,67,37,29.41,29.32,0,0,0,0.00
2012-7-13,86.4,75.9,69.1,68.1,61.0,50.8,88,64,30,29.44,29.35,0,0,0,0.00
2012-7-14,86.4,76.0,72.3,73.9,68.0,55.2,88,77,38,29.44,29.32,3,0,3,0.00
2012-7-15,90.5,78.4,69.3,73.6,63.6,53.5,93,65,30,29.41,29.26,6,1,6,0.00
2012-7-16,90.7,79.3,72.3,71.0,62.9,52.1,86,62,28,29.32,29.12,0,0,0,0.00
2012-7-17,92.1,79.8,69.4,72.0,61.2,47.0,90,59,22,29.20,29.06,4,0,4,0.00
2012-7-18,94.3,82.3,72.5,70.8,59.3,49.9,84,50,23,29.20,29.06,0,0,0,0.00
2012-7-19,91.8,78.6,72.9,71.2,62.9,50.8,81,61,29,29.23,29.12,3,1,3,0.00
2012-7-20,87.3,76.8,71.8,69.8,65.2,55.7,87,70,36,29.17,29.06,2,2,2,0.00
2012-7-21,88.2,77.2,71.8,72.8,65.4,54.2,91,70,35,29.29,29.12,3,1,3,0.00
2012-7-22,81.0,74.8,0.0,70.5,67.5,0.0,91,79,56,29.41,29.29,1,0,1,1.67
2012-7-23,94.5,76.8,0.0,74.6,62.4,0.0,93,64,27,29.38,29.23,0,0,0,1.67
2012-7-24,90.9,78.6,72.3,70.7,61.1,52.6,87,58,31,29.26,29.03,5,1,5,0.04
2012-7-25,89.2,77.7,70.0,67.1,59.5,51.3,82,56,29,29.20,29.09,4,0,4,0.00
2012-7-26,97.9,83.7,73.4,71.7,60.3,48.7,85,51,22,29.12,29.00,4,1,4,0.00
2012-7-27,98.1,81.3,72.5,71.9,59.3,47.5,80,52,20,29.14,29.03,3,1,3,0.00
2012-7-28,95.4,79.3,69.3,73.4,59.3,45.8,89,56,20,29.23,29.09,4,1,4,0.08
2012-7-29,93.0,78.1,67.3,64.9,53.4,40.5,82,49,18,29.23,29.12,4,0,4,0.00
2012-7-30,88.7,76.9,68.4,66.2,57.6,47.5,80,55,26,29.26,29.12,8,1,8,0.00
2012-7-31,87.4,75.6,66.6,68.1,58.3,49.4,87,59,29,29.20,29.09,6,0,6,0.00
2012-8-1,92.8,78.8,70.0,68.8,57.6,44.1,84,53,20,29.14,29.00,4,0,4,0.00
2012-8-2,91.9,80.8,69.3,63.7,54.8,43.5,72,45,19,29.15,29.06,6,1,6,0.00
2012-8-3,91.6,78.9,68.5,65.2,57.1,48.6,82,50,28,29.29,29.12,8,1,8,0.00
2012-8-4,90.5,80.2,71.2,67.6,57.9,48.5,81,50,25,29.41,29.23,7,2,7,0.00
2012-8-5,90.1,80.6,73.0,65.7,57.4,50.2,73,48,27,29.47,29.29,7,1,7,0.00
2012-8-6,87.6,80.1,73.9,67.0,58.9,49.8,79,52,29,29.32,29.17,5,1,5,0.00
2012-8-7,84.0,76.3,72.1,74.4,68.1,59.3,94,77,46,29.26,29.14,2,0,2,3.02
2012-8-8,89.2,74.6,67.8,69.3,63.8,46.4,86,71,30,29.23,29.12,5,1,5,3.02
2012-8-9,86.5,76.0,66.7,72.8,62.4,54.4,92,66,34,29.23,29.06,0,0,0,0.62
2012-8-10,82.4,74.8,69.4,70.2,63.5,54.9,92,71,41,29.12,29.00,6,1,6,3.71
2012-8-11,76.8,71.4,67.6,72.5,66.3,57.9,94,84,60,29.14,29.03,2,1,2,3.50
2012-8-12,83.5,72.0,63.7,64.8,57.2,46.0,92,65,29,29.23,29.12,0,0,0,0.00
2012-8-13,84.9,73.4,63.7,65.1,55.8,48.0,87,59,29,29.29,29.14,8,0,8,0.00
2012-8-14,88.2,75.5,65.7,66.3,56.3,47.5,86,56,28,29.17,29.06,7,0,7,0.00
2012-8-15,85.6,74.3,68.0,67.0,58.4,48.5,82,60,30,29.17,29.06,4,0,4,0.00
2012-8-16,85.3,72.7,64.4,63.4,55.3,43.2,83,59,25,29.26,29.14,4,0,4,0.00
2012-8-17,87.1,73.5,0.0,66.5,56.3,0.0,84,59,29,29.20,29.03,4,0,4,0.00
2012-8-18,81.7,73.1,67.1,65.8,59.3,0.0,85,64,34,29.17,29.06,4,0,4,0.00
2012-8-19,70.2,68.3,66.2,67.7,64.8,61.7,94,89,77,29.12,29.06,4,0,4,1.21
2012-8-20,76.3,69.0,64.9,67.8,62.1,54.3,95,80,48,29.23,29.06,4,0,4,0.03
2012-8-21,81.1,71.1,63.0,67.2,57.5,48.2,92,66,33,29.26,29.17,5,0,5,0.00
2012-8-22,79.9,70.3,66.2,66.2,60.0,50.3,88,72,41,29.35,29.23,8,0,8,0.46
2012-8-23,81.0,38.3,0.0,61.7,31.4,0.0,86,37,31,29.38,29.29,6,0,6,0.00
2012-8-24,80.8,70.8,63.7,64.9,54.0,41.5,88,59,28,29.38,29.29,4,0,4,0.00
2012-8-25,77.0,66.9,60.4,57.0,46.3,39.4,78,49,27,29.41,29.29,4,0,4,0.04
2012-8-26,80.2,70.2,60.6,55.1,47.9,44.1,68,47,30,29.41,29.29,6,0,6,0.00
2012-8-27,85.5,73.2,63.0,61.0,50.6,41.9,69,48,22,29.41,29.20,7,0,7,0.00
2012-8-28,88.0,77.5,70.2,63.9,55.2,42.5,78,51,21,29.26,29.12,5,0,5,3.33
2012-8-29,82.6,74.5,69.4,71.2,60.4,47.9,91,66,30,29.23,29.12,7,0,7,3.33
2012-8-30,86.0,75.6,66.9,71.6,57.8,49.1,85,58,29,29.35,29.20,6,0,6,0.00
2012-8-31,89.1,80.3,73.2,66.0,59.0,51.6,74,51,29,29.44,29.29,3,0,4,0.00
2012-9-1,89.6,79.3,71.8,71.5,60.4,51.2,83,56,29,29.35,29.23,4,0,4,0.00
2012-9-2,89.4,77.7,70.3,71.7,60.5,48.5,84,60,28,29.29,29.12,9,0,9,0.58
2012-9-3,83.7,73.0,68.7,69.3,64.6,52.9,88,76,42,29.26,29.14,8,0,8,0.75
2012-9-4,82.8,74.4,71.8,67.7,64.8,54.3,86,74,39,29.20,29.12,8,1,8,0.00
2012-9-5,82.8,78.3,72.9,63.1,57.2,52.3,71,50,36,29.14,29.06,6,0,6,0.33
2012-9-6,82.9,75.1,69.8,67.2,62.3,52.2,80,65,42,29.17,29.06,6,0,6,0.34
2012-9-7,85.1,74.9,67.3,68.8,59.3,48.5,88,62,29,29.20,29.06,6,0,6,0.12
2012-9-8,86.4,72.9,66.6,70.6,60.8,48.7,85,68,32,29.09,28.91,12,0,12,0.33
2012-9-9,76.3,66.6,59.0,59.3,42.6,33.8,77,44,22,29.20,29.06,4,0,4,0.08
2012-9-10,77.0,64.5,54.5,54.1,43.9,34.9,76,51,24,29.38,29.20,3,0,3,0.00
2012-9-11,77.9,64.0,53.1,53.1,42.3,31.7,76,49,22,29.53,29.35,6,0,6,0.00
2012-9-12,79.5,65.1,54.7,55.0,44.9,38.3,76,51,24,29.59,29.47,7,0,7,0.00
2012-9-13,79.5,63.8,52.3,53.0,43.3,35.5,77,51,22,29.59,29.47,6,0,6,0.00
2012-9-14,78.8,65.9,56.8,53.6,47.6,41.4,74,54,28,29.50,29.35,5,0,5,0.00
2012-9-15,80.1,68.5,58.5,59.2,49.4,44.2,81,53,31,29.44,29.29,6,0,6,0.05
2012-9-16,67.1,62.6,59.0,53.8,51.3,46.4,78,67,48,29.41,29.29,6,0,6,0.74
2012-9-17,72.5,66.5,61.3,65.4,58.5,53.0,85,76,62,29.35,29.12,6,0,6,0.05
2012-9-18,75.0,70.6,66.7,66.0,62.0,56.3,87,75,56,29.12,28.91,13,1,13,0.99
2012-9-19,73.2,63.7,57.2,62.8,49.8,38.3,86,64,31,29.35,29.03,8,0,8,0.00
2012-9-20,76.5,62.9,52.3,53.0,45.4,37.0,82,56,26,29.38,29.23,8,0,8,0.00
2012-9-21,79.7,66.4,55.6,57.0,48.3,43.3,83,55,30,29.32,29.17,7,0,7,0.00
2012-9-22,85.1,70.8,63.5,58.4,50.6,40.8,71,52,23,29.20,29.06,7,0,7,0.21
2012-9-23,72.9,61.9,51.4,55.8,38.5,18.5,76,47,14,29.38,29.09,4,0,4,0.00
2012-9-24,68.9,56.8,45.7,39.4,32.6,27.6,63,42,22,29.44,29.35,4,0,4,0.00
2012-9-25,73.4,60.1,45.3,46.6,40.1,35.2,75,50,30,29.47,29.35,5,0,5,0.00
2012-9-26,80.8,67.2,57.2,55.1,46.7,41.9,73,51,27,29.47,29.35,4,0,4,0.00
2012-9-27,81.7,68.4,56.3,54.8,48.9,45.5,80,53,30,29.41,29.29,5,0,5,0.00
2012-9-28,80.8,67.2,58.5,59.3,52.6,45.2,79,61,31,29.32,29.17,4,0,4,0.16
2012-9-29,66.2,62.9,59.9,61.7,57.8,54.9,87,84,77,29.20,29.12,3,0,3,0.49
2012-9-30,68.7,61.5,56.8,56.5,50.7,39.1,89,71,34,29.17,29.06,5,0,6,0.00
2012-10-1,62.1,60.3,59.2,57.0,53.4,49.9,86,78,68,29.17,29.06,7,0,7,0.05
2012-10-2,78.1,65.8,61.2,73.7,61.4,56.3,91,86,65,29.17,29.03,6,0,6,0.41
2012-10-3,79.5,72.5,68.0,70.5,59.5,47.3,91,67,33,29.38,29.09,4,0,4,0.00
2012-10-4,77.4,68.5,60.6,57.7,50.4,42.5,69,54,30,29.44,29.35,4,0,4,0.00
2012-10-5,79.5,65.3,54.1,55.0,44.9,35.1,78,52,22,29.41,29.23,6,0,6,0.04
2012-10-6,77.9,66.2,56.5,59.7,45.9,36.8,82,51,29,29.23,29.12,5,0,5,0.09
2012-10-7,56.7,52.2,48.9,45.1,42.1,39.8,75,68,60,29.38,29.17,5,0,5,0.45
2012-10-8,49.8,47.4,45.3,41.5,38.9,36.2,79,72,63,29.47,29.35,3,0,3,0.12
2012-10-9,57.7,51.2,45.5,46.2,42.1,39.4,83,72,53,29.38,29.29,2,0,2,0.13
2012-10-10,68.4,58.1,48.7,50.3,41.1,34.4,83,56,33,29.35,29.17,6,0,6,0.00
2012-10-11,66.2,52.6,41.2,40.8,32.2,26.8,75,49,24,29.50,29.35,6,0,6,0.00
2012-10-12,69.8,55.1,43.5,48.5,35.0,29.6,74,50,24,29.56,29.38,4,0,4,0.00
2012-10-13,66.2,52.7,41.5,38.3,30.7,26.7,63,45,26,29.68,29.41,6,0,6,0.00
2012-10-14,71.8,58.6,44.2,47.5,39.3,33.7,75,51,31,29.56,29.23,6,0,6,0.00
2012-10-15,72.5,63.7,51.6,61.6,46.6,30.8,81,55,30,29.32,28.94,6,0,6,0.58
2012-10-16,70.9,54.3,42.6,43.1,32.2,28.5,72,45,24,29.20,28.97,4,0,4,0.05
2012-10-17,71.4,55.5,45.3,46.6,34.7,27.6,72,50,22,29.20,29.09,9,1,9,0.00
2012-10-18,72.0,59.1,46.8,55.8,43.4,34.2,79,57,38,29.14,29.00,8,1,8,0.49
2012-10-19,72.0,61.2,48.6,59.6,41.7,25.1,88,54,19,29.00,28.88,6,0,6,0.45
2012-10-20,67.6,54.3,44.1,41.7,31.5,26.9,72,45,23,29.20,28.94,6,1,6,0.00
2012-10-21,66.2,51.5,39.7,40.9,29.8,26.9,73,46,24,29.38,29.17,4,0,4,0.05
2012-10-22,74.1,58.3,40.8,40.5,34.7,30.3,75,44,22,29.47,29.32,4,0,4,0.00
2012-10-23,78.3,54.8,46.8,46.0,37.4,32.5,75,55,20,29.38,29.29,6,0,6,0.00
2012-10-24,80.2,62.7,49.3,48.9,39.3,35.4,72,46,21,29.41,29.29,5,0,5,0.00
2012-10-25,79.2,62.7,48.7,46.9,40.3,35.7,75,47,22,29.38,29.29,6,0,6,0.00
2012-10-26,66.2,58.8,52.5,52.4,46.6,41.8,74,65,47,29.38,29.20,4,0,4,0.00
2012-10-27,70.3,63.1,59.4,56.0,45.4,34.9,80,55,33,29.20,28.97,5,1,5,0.08
2012-10-28,68.0,60.3,52.5,39.4,32.1,24.0,48,35,24,29.00,28.82,8,2,8,0.00
2012-10-29,52.5,47.1,43.0,25.6,20.9,16.4,42,35,31,28.88,28.55,17,4,17,0.00
2012-10-30,44.6,11.3,0.0,17.0,4.2,0.0,33,8,32,28.79,28.50,21,4,21,0.00
2012-10-31,71.1,5.8,0.0,57.0,4.0,0.0,69,7,38,29.00,28.76,8,2,12,0.04
2012-11-1,59.7,47.2,35.8,38.9,33.4,31.4,85,60,40,29.06,28.94,10,2,11,0.00
2012-11-2,62.2,45.3,33.3,39.8,32.7,27.0,90,65,32,29.17,28.97,9,1,9,0.00
2012-11-3,63.9,48.4,36.5,39.3,31.8,0.0,81,55,34,29.32,29.06,6,2,6,0.00
2012-11-4,58.6,48.2,42.3,40.7,38.0,35.0,86,69,48,29.26,29.14,6,0,6,0.00
2012-11-5,59.5,43.0,32.5,39.9,31.6,27.4,94,68,35,29.29,29.14,6,0,229,0.00
2012-11-6,43.0,37.4,32.2,32.1,30.6,28.7,90,77,61,29.35,29.12,4,0,4,0.00
2012-11-7,56.7,41.5,32.2,35.4,31.1,28.2,91,69,38,29.14,29.00,6,1,6,0.00
2012-11-8,64.9,44.5,31.6,39.5,27.4,21.3,95,58,23,29.32,29.06,7,1,7,0.05
2012-11-9,67.8,44.9,28.9,37.6,29.2,23.5,86,59,26,29.47,29.29,6,1,6,0.00
2012-11-10,74.8,50.2,33.1,45.3,34.2,30.0,91,60,23,29.56,29.41,6,0,6,0.00
2012-11-11,75.0,53.6,36.1,50.9,40.3,32.5,89,65,32,29.65,29.53,8,1,8,0.00
2012-11-12,64.2,59.4,50.9,61.5,56.9,48.4,98,92,81,29.59,29.35,6,1,6,0.00
2012-11-13,63.7,47.4,33.6,61.0,39.4,28.9,98,77,39,29.62,29.35,12,1,12,0.12
2012-11-14,52.7,39.9,30.9,35.0,29.2,25.2,93,68,41,29.71,29.53,8,1,8,0.00
2012-11-15,45.5,39.6,34.0,37.7,31.3,27.2,93,73,54,29.56,29.41,4,0,4,0.04
2012-11-16,60.6,41.3,29.3,39.3,31.6,28.1,98,72,36,29.56,29.44,6,1,6,0.00
2012-11-17,60.8,43.6,29.1,35.3,27.2,22.9,91,57,30,29.68,29.56,6,1,6,0.00
2012-11-18,57.7,49.3,40.3,40.5,37.1,25.1,73,63,51,29.68,29.53,6,2,6,0.00
2012-11-19,59.7,49.7,38.8,42.9,40.1,36.2,91,71,51,29.56,29.38,5,1,5,0.00
2012-11-20,61.0,45.1,35.8,43.9,38.7,33.7,97,80,50,29.56,29.26,5,0,5,0.00
2012-11-21,66.9,37.9,31.3,45.7,32.6,28.5,98,85,33,29.38,29.26,6,0,6,0.00
2012-11-22,66.6,43.2,29.7,40.8,28.9,24.2,92,63,27,29.44,29.35,57,1,57,0.00
2012-11-23,68.9,47.7,28.0,41.8,31.5,23.9,89,58,33,29.35,29.06,11,1,11,0.00
2012-11-24,51.8,41.8,27.3,28.1,20.6,13.1,63,43,30,29.29,29.09,10,2,10,0.00
2012-11-25,54.3,35.3,20.3,25.1,18.6,13.2,80,53,29,29.35,29.17,8,1,9,0.00
2012-11-26,68.7,44.2,26.6,37.7,25.3,19.3,78,52,23,29.38,29.23,6,1,6,0.00
2012-11-27,51.3,44.3,35.6,44.7,39.0,26.1,96,82,64,29.44,29.29,4,0,4,0.04
2012-11-28,55.9,40.1,27.1,43.6,30.8,21.8,98,74,35,29.56,29.38,7,1,7,0.08
2012-11-29,57.7,36.8,22.6,36.5,24.9,19.4,89,66,35,29.62,29.44,6,0,6,0.04
2012-11-30,64.6,42.5,27.1,39.8,29.7,24.5,92,65,33,29.59,29.44,5,1,7,0.00
2012-12-1,69.3,45.3,29.8,45.2,34.7,27.5,92,70,36,29.56,29.47,4,0,5,0.00
2012-12-2,70.2,50.4,34.5,51.3,41.9,32.7,94,76,44,29.56,29.41,6,1,11,0.00
2012-12-3,77.5,58.7,47.5,56.4,49.2,44.1,95,74,40,29.50,29.38,6,0,6,0.00
2012-12-4,73.9,59.4,42.4,56.7,48.3,41.4,97,71,38,29.50,29.35,6,1,6,0.00
2012-12-5,63.9,54.7,34.5,56.7,45.0,28.4,87,71,43,29.41,29.29,4,1,7,0.00
2012-12-6,54.9,44.5,32.5,33.3,30.5,27.4,81,59,40,29.53,29.38,5,1,6,0.00
2012-12-7,50.2,46.9,45.1,47.3,39.9,32.9,98,77,61,29.38,29.17,2,0,2,0.25
2012-12-8,67.5,52.3,46.0,55.7,49.2,45.2,98,90,61,29.23,29.12,5,1,5,0.13
2012-12-9,69.6,57.6,48.2,62.2,55.6,47.7,98,93,71,29.32,29.17,4,0,5,0.00
2012-12-10,65.7,61.8,57.6,60.2,58.6,57.0,98,89,77,29.17,28.88,6,2,10,0.00
2012-12-11,62.6,51.0,40.6,58.2,37.6,26.2,87,61,45,29.38,28.88,6,2,6,0.00
2012-12-12,49.1,42.6,37.9,31.8,27.7,25.9,70,56,46,29.53,29.35,6,1,6,0.00
2012-12-13,57.2,41.1,26.8,28.1,23.4,18.1,71,51,31,29.59,29.47,6,1,6,0.00
2012-12-14,63.0,37.3,22.3,34.4,23.5,17.9,87,61,28,29.56,29.41,5,0,5,0.04
2012-12-15,63.5,44.1,30.9,38.6,29.4,23.9,85,60,28,29.44,29.23,6,1,6,0.00
2012-12-16,54.5,47.4,44.6,54.0,42.9,33.5,98,85,63,29.32,29.06,6,0,6,0.21
2012-12-17,56.8,54.2,48.0,56.3,53.6,47.5,98,98,94,29.09,28.82,11,1,11,0.29
2012-12-18,59.4,49.8,33.3,56.6,40.9,30.0,98,75,38,29.12,28.82,12,1,12,0.00
2012-12-19,64.8,44.8,30.2,43.7,33.0,26.4,91,67,34,29.35,29.06,8,1,8,0.00
2012-12-20,58.5,45.3,34.2,57.9,40.9,31.9,98,85,64,29.35,28.67,13,1,13,0.25
2012-12-21,50.2,40.0,35.6,45.7,23.8,17.4,89,53,40,29.03,28.70,19,4,19,0.25
2012-12-22,54.9,40.7,33.3,22.9,17.4,12.5,52,40,27,29.29,29.00,13,4,15,0.00
2012-12-23,55.8,38.3,23.0,28.0,19.2,12.1,75,48,27,29.32,29.17,6,2,6,0.00
2012-12-24,45.7,42.5,37.6,45.0,37.9,24.1,98,85,52,29.20,29.06,4,0,4,0.16
2012-12-25,57.2,47.0,41.5,48.3,43.1,40.8,98,87,58,29.26,29.09,3,0,3,0.00
2012-12-26,44.2,39.2,35.4,41.6,38.1,34.9,98,96,87,29.26,28.67,10,1,10,0.96
2012-12-27,49.6,37.9,28.8,35.6,26.7,22.0,98,65,42,29.26,28.82,13,2,13,0.00
2012-12-28,45.5,32.2,25.2,29.5,24.4,21.3,87,74,47,29.35,29.14,6,0,6,0.00
2012-12-29,50.9,40.1,34.2,41.0,31.2,19.0,98,73,46,29.20,28.85,16,2,16,0.12
2012-12-30,49.6,36.4,25.3,23.1,18.0,13.7,72,48,32,29.56,28.97,12,2,12,0.00
2012-12-31,50.7,38.7,23.0,30.9,24.4,16.2,85,58,37,29.53,29.26,9,1,9,0.00
2013-1-1,48.2,45.5,41.2,47.7,38.6,26.1,98,78,48,29.26,29.09,6,1,6,0.21